Airport View

Enter AWOS ICAO identifier for current METAR.

ex. KFNL

KBAC 262315Z AUTO 08005KT 10SM OVC022 M10/M12 A3023 RMK AO2

26 Feb 2020 23:40

Frequency: 118.725

Phone: 701-845-9117

Other Area AWOS: KJMS - KS32 - KGWR - K2D5

TAF KJMS 261727Z 2618/2718 31005KT P6SM OVC020 FM262000 VRB03KT P6SM BKN035 FM270500 14006KT P6SM BKN020 FM270800 15005KT P6SM BKN006 FM271700 27006KT P6SM OVC009